LS Concorde — ZDHJ7 — position and weather

sailwx.info

Track history (hours):
 
Tides and Currents Weather Stations Pressure Air Temp Water Temp Dewpoint Dewpoint Depression Visibility Wind Speed Wind Dir Waves Ship Positions

LS Concorde

Last reported at 2016-Jul-28 07:31 UTC. Time now 2016-Jul-28 08:33 UTC.
Position N 55°41' E 012°56'.

Length 99 m; draft 6.2 m.

Type: Tanker. MMSI: 236329000.

Date/timePositionNaut miles runAvg speedWind from/ knotsBaromVisibWave heightAir tempDewpointWater temp
2016-Jul-28 07:31N 55°41' E 012°56'0 0.0
2016-Jul-28 06:28N 55°41' E 012°56'0 0.0
2016-Jul-28 05:28N 55°41' E 012°56'0 0.0
2016-Jul-28 04:31N 55°41' E 012°56'0 0.0
2016-Jul-28 03:31N 55°41' E 012°56'0 0.0
2016-Jul-28 02:31N 55°41' E 012°56'0 0.0
2016-Jul-28 01:31N 55°41' E 012°56'0 0.0
2016-Jul-28 00:31N 55°41' E 012°56'0 0.0
2016-Jul-27 23:31N 55°41' E 012°56'0 0.0
2016-Jul-27 22:31N 55°41' E 012°56'0 0.0
2016-Jul-27 21:31N 55°41' E 012°56'0 0.0
2016-Jul-27 20:31N 55°41' E 012°56'0 0.0
2016-Jul-27 19:31N 55°41' E 012°56'0 0.0
2016-Jul-27 18:31N 55°41' E 012°56'0 0.0
2016-Jul-27 17:31N 55°41' E 012°56'0 0.0
2016-Jul-27 16:31N 55°41' E 012°56'0 0.0
2016-Jul-27 15:31N 55°41' E 012°56'0 0.0
2016-Jul-27 14:31N 55°41' E 012°56'0 0.0
2016-Jul-27 13:31N 55°41' E 012°56'0 0.0
2016-Jul-27 12:31N 55°41' E 012°56'0 0.0
2016-Jul-27 11:31N 55°41' E 012°56'0 0.0
2016-Jul-27 10:31N 55°41' E 012°56'0 0.0
2016-Jul-27 09:31N 55°41' E 012°56'0 0.0
2016-Jul-27 08:31N 55°41' E 012°56'0 0.0
2016-Jul-27 07:31N 55°41' E 012°56'0 0.0
2016-Jul-27 06:31N 55°41' E 012°56'0 0.0
2016-Jul-27 05:31N 55°41' E 012°56'0 0.0
2016-Jul-27 04:31N 55°41' E 012°56'0 0.0
2016-Jul-27 03:31N 55°41' E 012°56'0 0.0
2016-Jul-27 02:31N 55°41' E 012°56'0 0.0
2016-Jul-27 01:31N 55°41' E 012°56'0 0.1
2016-Jul-27 00:31N 55°41' E 012°56'0 0.0
2016-Jul-26 23:31N 55°41' E 012°56'0 0.1
2016-Jul-26 22:31N 55°41' E 012°56'0 0.1
2016-Jul-26 21:31N 55°41' E 012°56'0 0.0
2016-Jul-26 20:28N 55°41' E 012°56'0 0.0
2016-Jul-26 19:31N 55°41' E 012°56'0 0.0
2016-Jul-26 18:31N 55°41' E 012°56'1 1.5
2016-Jul-26 17:34N 55°40' E 012°58'3 2.9
2016-Jul-26 16:33N 55°38' E 013°01'0 0.0
2016-Jul-26 15:33N 55°38' E 013°01'0 0.0
2016-Jul-26 14:33N 55°38' E 013°01'0 0.0
2016-Jul-26 13:33N 55°38' E 013°01'0 0.0
2016-Jul-26 12:33N 55°38' E 013°01'0 0.0
2016-Jul-26 11:33N 55°38' E 013°01'0 0.0
2016-Jul-26 10:33N 55°38' E 013°01'4 3.6
2016-Jul-26 09:33N 55°41' E 012°56'2 1.6
2016-Jul-26 08:31N 55°42' E 012°55'0 0.0
2016-Jul-26 07:31N 55°42' E 012°55'0 0.0
2016-Jul-26 06:31N 55°42' E 012°55'0 0.0
2016-Jul-26 05:31N 55°42' E 012°55'0 0.0
2016-Jul-26 04:31N 55°42' E 012°55'0 0.1
2016-Jul-26 03:31N 55°42' E 012°55'0 0.0
2016-Jul-26 02:31N 55°42' E 012°55'0 0.0
2016-Jul-26 01:31N 55°42' E 012°55'0 0.0
2016-Jul-26 00:31N 55°42' E 012°55'0 0.0
2016-Jul-25 23:31N 55°42' E 012°55'0 0.0
2016-Jul-25 22:34N 55°42' E 012°55'0 0.0
2016-Jul-25 21:31N 55°42' E 012°55'0 0.0
2016-Jul-25 20:31N 55°42' E 012°55'0 0.0
2016-Jul-25 19:31N 55°42' E 012°55'0 0.0
2016-Jul-25 18:31N 55°42' E 012°55'0 0.0
2016-Jul-25 17:31N 55°42' E 012°55'0 0.0
2016-Jul-25 16:31N 55°42' E 012°55'0 0.0
2016-Jul-25 15:31N 55°42' E 012°55'0 0.0
2016-Jul-25 14:31N 55°42' E 012°55'0 0.0
2016-Jul-25 13:31N 55°42' E 012°55'0 0.0
2016-Jul-25 12:31N 55°42' E 012°55'0 0.0
2016-Jul-25 11:31N 55°42' E 012°55'0 0.0
2016-Jul-25 10:31N 55°42' E 012°55'0 0.0
2016-Jul-25 09:31N 55°42' E 012°55'0 0.0
2016-Jul-25 08:31N 55°42' E 012°55'0 0.0
2016-Jul-25 07:31N 55°42' E 012°55'0 0.0
2016-Jul-25 06:31N 55°42' E 012°55'0 0.0
2016-Jul-25 05:31N 55°42' E 012°55'0 0.0
2016-Jul-25 04:31N 55°42' E 012°55'0 0.0
2016-Jul-25 03:31N 55°42' E 012°55'0 0.0
2016-Jul-25 02:31N 55°42' E 012°55'0 0.0
2016-Jul-25 01:31N 55°42' E 012°55'0 0.0
2016-Jul-25 00:31N 55°42' E 012°55'0 0.0
2016-Jul-24 23:31N 55°42' E 012°55'0 0.0
2016-Jul-24 22:31N 55°42' E 012°55'0 0.0
2016-Jul-24 21:34N 55°42' E 012°55'0 0.0
2016-Jul-24 20:31N 55°42' E 012°55'0 0.0
2016-Jul-24 19:31N 55°42' E 012°55'0 0.0
2016-Jul-24 18:31N 55°42' E 012°55'0 0.0
2016-Jul-24 17:31N 55°42' E 012°55'0 0.0
2016-Jul-24 16:31N 55°42' E 012°55'0 0.0
2016-Jul-24 15:31N 55°42' E 012°55'0 0.0
2016-Jul-24 14:31N 55°42' E 012°55'0 0.0
2016-Jul-24 13:31N 55°42' E 012°55'0 0.0
2016-Jul-24 12:31N 55°42' E 012°55'0 0.0
2016-Jul-24 11:31N 55°42' E 012°55'0 0.0
2016-Jul-24 10:31N 55°42' E 012°55'0 0.0
2016-Jul-24 09:31N 55°42' E 012°55'0 0.0
2016-Jul-24 08:31N 55°42' E 012°55'0 0.0
2016-Jul-24 07:31N 55°42' E 012°55'0 0.0
2016-Jul-24 06:31N 55°42' E 012°55'0 0.0
2016-Jul-24 05:31N 55°42' E 012°55'0 0.0
2016-Jul-24 04:31N 55°42' E 012°55'0 0.0
2016-Jul-24 03:31N 55°42' E 012°55'0 0.0
2016-Jul-24 02:31N 55°42' E 012°55'0 0.0
2016-Jul-24 01:31N 55°42' E 012°55'0 0.0
2016-Jul-24 00:31N 55°42' E 012°55'0 0.0
2016-Jul-23 23:31N 55°42' E 012°55'0 0.0
2016-Jul-23 22:31N 55°42' E 012°55'0 0.0
2016-Jul-23 21:31N 55°42' E 012°55'0 0.0
2016-Jul-23 20:31N 55°42' E 012°55'0 0.0
2016-Jul-23 19:31N 55°42' E 012°55'0 0.0
2016-Jul-23 18:34N 55°42' E 012°55'0 0.0
2016-Jul-23 17:31N 55°42' E 012°55'0 0.0
2016-Jul-23 16:31N 55°42' E 012°55'0 0.0
2016-Jul-23 15:31N 55°42' E 012°55'0 0.0
2016-Jul-23 14:31N 55°42' E 012°55'0 0.0
2016-Jul-23 13:31N 55°42' E 012°55'0 0.0
2016-Jul-23 12:31N 55°42' E 012°55'0 0.0
2016-Jul-23 11:31N 55°42' E 012°55'0 0.0
2016-Jul-23 10:31N 55°42' E 012°55'0 0.0
2016-Jul-23 09:31N 55°42' E 012°55'0 0.0
2016-Jul-23 08:31N 55°42' E 012°55'0 0.0
2016-Jul-23 07:31N 55°42' E 012°55'0 0.0
2016-Jul-23 06:31N 55°42' E 012°55'0 0.0
2016-Jul-23 04:31N 55°42' E 012°55'0 0.0
2016-Jul-23 03:31N 55°42' E 012°55'0 0.0
2016-Jul-23 02:31N 55°42' E 012°55'0 0.0
2016-Jul-23 01:31N 55°42' E 012°55'0 0.0
2016-Jul-23 00:31N 55°42' E 012°55'0 0.0
2016-Jul-22 23:31N 55°42' E 012°55'0 0.0
2016-Jul-22 22:31N 55°42' E 012°55'0 0.0
2016-Jul-22 21:31N 55°42' E 012°55'0 0.0
2016-Jul-22 20:31N 55°42' E 012°55'0 0.0
2016-Jul-22 19:31N 55°42' E 012°55'0 0.0
2016-Jul-22 18:31N 55°42' E 012°55'0 0.0
2016-Jul-22 17:31N 55°42' E 012°55'0 0.0
2016-Jul-22 16:31N 55°42' E 012°55'0 0.0
2016-Jul-22 15:31N 55°42' E 012°55'0 0.0
2016-Jul-22 14:31N 55°42' E 012°55'0 0.0
2016-Jul-22 13:31N 55°42' E 012°55'0 0.0
2016-Jul-22 12:31N 55°42' E 012°55'0 0.0
2016-Jul-22 11:31N 55°42' E 012°55'0 0.0
2016-Jul-22 10:31N 55°42' E 012°55'0 0.0
2016-Jul-22 09:31N 55°42' E 012°55'0 0.0
2016-Jul-22 08:31N 55°42' E 012°55'0 0.0
2016-Jul-22 07:31N 55°42' E 012°55'0 0.0
2016-Jul-22 04:31N 55°42' E 012°55'0 0.0
2016-Jul-22 03:31N 55°42' E 012°55'0 0.0
2016-Jul-22 02:31N 55°42' E 012°55'0 0.0
2016-Jul-22 01:31N 55°42' E 012°55'0 0.0
2016-Jul-22 00:31N 55°42' E 012°55'0 0.0
2016-Jul-21 23:31N 55°42' E 012°55'0 0.0
2016-Jul-21 22:31N 55°42' E 012°55'0 0.0
2016-Jul-21 21:31N 55°42' E 012°55'0 0.0
2016-Jul-21 20:31N 55°42' E 012°55'0 0.0
2016-Jul-21 19:31N 55°42' E 012°55'0 0.0
2016-Jul-21 18:31N 55°42' E 012°55'0 0.0
2016-Jul-21 17:31N 55°42' E 012°55'0 0.0
2016-Jul-21 16:31N 55°42' E 012°55'0 0.0
2016-Jul-21 15:31N 55°42' E 012°55'0 0.0
2016-Jul-21 14:31N 55°42' E 012°55'0 0.0
2016-Jul-21 13:31N 55°42' E 012°55'0 0.0
2016-Jul-21 12:31N 55°42' E 012°55'0 0.0
2016-Jul-21 11:31N 55°42' E 012°55'0 0.0
2016-Jul-21 10:31N 55°42' E 012°55'0 0.0
2016-Jul-21 09:31N 55°42' E 012°55'0 0.0
2016-Jul-21 08:31N 55°42' E 012°55'0 0.0
2016-Jul-21 07:31N 55°42' E 012°55'0 0.0
2016-Jul-21 06:31N 55°42' E 012°55'0 0.0
2016-Jul-21 05:31N 55°42' E 012°55'0 0.0
2016-Jul-21 04:31N 55°42' E 012°55'0 0.0
2016-Jul-21 03:31N 55°42' E 012°55'0 0.0
2016-Jul-21 02:31N 55°42' E 012°55'0 0.0
2016-Jul-21 01:31N 55°42' E 012°55'0 0.0
2016-Jul-21 00:31N 55°42' E 012°55'0 0.0
2016-Jul-20 23:31N 55°42' E 012°55'0 0.0
2016-Jul-20 22:31N 55°42' E 012°55'0 0.0
2016-Jul-20 21:31N 55°42' E 012°55'0 0.0
2016-Jul-20 20:31N 55°42' E 012°55'0 0.0
2016-Jul-20 19:31N 55°42' E 012°55'0 0.0
2016-Jul-20 18:31N 55°42' E 012°55'0 0.0
2016-Jul-20 17:31N 55°42' E 012°55'0 0.0
2016-Jul-20 16:31N 55°42' E 012°55'0 0.0
2016-Jul-20 15:31N 55°42' E 012°55'0 0.0
2016-Jul-20 14:31N 55°42' E 012°55'0 0.0
2016-Jul-20 13:31N 55°42' E 012°55'0 0.0
2016-Jul-20 12:31N 55°42' E 012°55'0 0.0
2016-Jul-20 11:31N 55°42' E 012°55'0 0.0
2016-Jul-20 10:31N 55°42' E 012°55'0 0.0
2016-Jul-20 09:34N 55°42' E 012°55'0 0.0
2016-Jul-20 08:31N 55°42' E 012°55'0 0.0
2016-Jul-20 07:31N 55°42' E 012°55'0 0.0
2016-Jul-20 06:34N 55°42' E 012°55'0 0.0
2016-Jul-20 05:31N 55°42' E 012°55'0 0.0
2016-Jul-20 04:31N 55°42' E 012°55'0 0.0
2016-Jul-20 03:31N 55°42' E 012°55'0 0.0
2016-Jul-20 02:31N 55°42' E 012°55'0 0.0
2016-Jul-20 01:31N 55°42' E 012°55'0 0.1
2016-Jul-20 00:31N 55°42' E 012°55'0 0.0
2016-Jul-19 23:31N 55°42' E 012°55'0 0.0
2016-Jul-19 22:31N 55°42' E 012°55'2 1.7
2016-Jul-19 21:33N 55°41' E 012°57'4 3.6
2016-Jul-19 20:32N 55°38' E 013°01'0 0.0
2016-Jul-19 19:32N 55°38' E 013°01'0 0.0
2016-Jul-19 18:32N 55°38' E 013°01'0 0.0
2016-Jul-19 17:32N 55°38' E 013°01'0 0.0
2016-Jul-19 16:32N 55°38' E 013°01'0 0.0
2016-Jul-19 15:32N 55°38' E 013°01'0 0.0
2016-Jul-19 14:32N 55°38' E 013°01'2 2.2
2016-Jul-19 13:33N 55°40' E 012°58'1211.8
2016-Jul-19 12:33N 55°49' E 012°46'1212.1
2016-Jul-19 11:33N 56°01' E 012°40'1211.5
2016-Jul-19 10:33N 56°09' E 012°25'1110.7
2016-Jul-19 09:33N 56°15' E 012°10'2211.0
2016-Jul-19 07:33N 56°36' E 011°56'3511.6
2016-Jul-19 04:33N 57°09' E 011°36'1211.7
2016-Jul-19 03:33N 57°20' E 011°29'1111.1
2016-Jul-19 02:32N 57°30' E 011°19'1111.7
2016-Jul-19 01:33N 57°38' E 011°03'1212.2
2016-Jul-19 00:33N 57°46' E 010°47'5212.3
2016-Jul-18 20:19N 57°39' E 009°10'  
Track history (hours):
 
Tides and Currents Weather Stations Pressure Air Temp Water Temp Dewpoint Dewpoint Depression Visibility Wind Speed Wind Dir Waves Ship Positions

LS Concorde

Last reported at 2016-Jul-28 07:31 UTC. Time now 2016-Jul-28 08:33 UTC.
Position N 55°41' E 012°56'.

Length 99 m; draft 6.2 m.

Type: Tanker. MMSI: 236329000.

Date/timePositionNaut miles runAvg speedWind from/ knotsBaromVisibWave heightAir tempDewpointWater temp
2016-Jul-28 07:31N 55°41' E 012°56'0 0.0
2016-Jul-28 06:28N 55°41' E 012°56'0 0.0
2016-Jul-28 05:28N 55°41' E 012°56'0 0.0
2016-Jul-28 04:31N 55°41' E 012°56'0 0.0
2016-Jul-28 03:31N 55°41' E 012°56'0 0.0
2016-Jul-28 02:31N 55°41' E 012°56'0 0.0
2016-Jul-28 01:31N 55°41' E 012°56'0 0.0
2016-Jul-28 00:31N 55°41' E 012°56'0 0.0
2016-Jul-27 23:31N 55°41' E 012°56'0 0.0
2016-Jul-27 22:31N 55°41' E 012°56'0 0.0
2016-Jul-27 21:31N 55°41' E 012°56'0 0.0
2016-Jul-27 20:31N 55°41' E 012°56'0 0.0
2016-Jul-27 19:31N 55°41' E 012°56'0 0.0
2016-Jul-27 18:31N 55°41' E 012°56'0 0.0
2016-Jul-27 17:31N 55°41' E 012°56'0 0.0
2016-Jul-27 16:31N 55°41' E 012°56'0 0.0
2016-Jul-27 15:31N 55°41' E 012°56'0 0.0
2016-Jul-27 14:31N 55°41' E 012°56'0 0.0
2016-Jul-27 13:31N 55°41' E 012°56'0 0.0
2016-Jul-27 12:31N 55°41' E 012°56'0 0.0
2016-Jul-27 11:31N 55°41' E 012°56'0 0.0
2016-Jul-27 10:31N 55°41' E 012°56'0 0.0
2016-Jul-27 09:31N 55°41' E 012°56'0 0.0
2016-Jul-27 08:31N 55°41' E 012°56'0 0.0
2016-Jul-27 07:31N 55°41' E 012°56'0 0.0
2016-Jul-27 06:31N 55°41' E 012°56'0 0.0
2016-Jul-27 05:31N 55°41' E 012°56'0 0.0
2016-Jul-27 04:31N 55°41' E 012°56'0 0.0
2016-Jul-27 03:31N 55°41' E 012°56'0 0.0
2016-Jul-27 02:31N 55°41' E 012°56'0 0.0
2016-Jul-27 01:31N 55°41' E 012°56'0 0.1
2016-Jul-27 00:31N 55°41' E 012°56'0 0.0
2016-Jul-26 23:31N 55°41' E 012°56'0 0.1
2016-Jul-26 22:31N 55°41' E 012°56'0 0.1
2016-Jul-26 21:31N 55°41' E 012°56'0 0.0
2016-Jul-26 20:28N 55°41' E 012°56'0 0.0
2016-Jul-26 19:31N 55°41' E 012°56'0 0.0
2016-Jul-26 18:31N 55°41' E 012°56'1 1.5
2016-Jul-26 17:34N 55°40' E 012°58'3 2.9
2016-Jul-26 16:33N 55°38' E 013°01'0 0.0
2016-Jul-26 15:33N 55°38' E 013°01'0 0.0
2016-Jul-26 14:33N 55°38' E 013°01'0 0.0
2016-Jul-26 13:33N 55°38' E 013°01'0 0.0
2016-Jul-26 12:33N 55°38' E 013°01'0 0.0
2016-Jul-26 11:33N 55°38' E 013°01'0 0.0
2016-Jul-26 10:33N 55°38' E 013°01'4 3.6
2016-Jul-26 09:33N 55°41' E 012°56'2 1.6
2016-Jul-26 08:31N 55°42' E 012°55'0 0.0
2016-Jul-26 07:31N 55°42' E 012°55'0 0.0
2016-Jul-26 06:31N 55°42' E 012°55'0 0.0
2016-Jul-26 05:31N 55°42' E 012°55'0 0.0
2016-Jul-26 04:31N 55°42' E 012°55'0 0.1
2016-Jul-26 03:31N 55°42' E 012°55'0 0.0
2016-Jul-26 02:31N 55°42' E 012°55'0 0.0
2016-Jul-26 01:31N 55°42' E 012°55'0 0.0
2016-Jul-26 00:31N 55°42' E 012°55'0 0.0
2016-Jul-25 23:31N 55°42' E 012°55'0 0.0
2016-Jul-25 22:34N 55°42' E 012°55'0 0.0
2016-Jul-25 21:31N 55°42' E 012°55'0 0.0
2016-Jul-25 20:31N 55°42' E 012°55'0 0.0
2016-Jul-25 19:31N 55°42' E 012°55'0 0.0
2016-Jul-25 18:31N 55°42' E 012°55'0 0.0
2016-Jul-25 17:31N 55°42' E 012°55'0 0.0
2016-Jul-25 16:31N 55°42' E 012°55'0 0.0
2016-Jul-25 15:31N 55°42' E 012°55'0 0.0
2016-Jul-25 14:31N 55°42' E 012°55'0 0.0
2016-Jul-25 13:31N 55°42' E 012°55'0 0.0
2016-Jul-25 12:31N 55°42' E 012°55'0 0.0
2016-Jul-25 11:31N 55°42' E 012°55'0 0.0
2016-Jul-25 10:31N 55°42' E 012°55'0 0.0
2016-Jul-25 09:31N 55°42' E 012°55'0 0.0
2016-Jul-25 08:31N 55°42' E 012°55'0 0.0
2016-Jul-25 07:31N 55°42' E 012°55'0 0.0
2016-Jul-25 06:31N 55°42' E 012°55'0 0.0
2016-Jul-25 05:31N 55°42' E 012°55'0 0.0
2016-Jul-25 04:31N 55°42' E 012°55'0 0.0
2016-Jul-25 03:31N 55°42' E 012°55'0 0.0
2016-Jul-25 02:31N 55°42' E 012°55'0 0.0
2016-Jul-25 01:31N 55°42' E 012°55'0 0.0
2016-Jul-25 00:31N 55°42' E 012°55'0 0.0
2016-Jul-24 23:31N 55°42' E 012°55'0 0.0
2016-Jul-24 22:31N 55°42' E 012°55'0 0.0
2016-Jul-24 21:34N 55°42' E 012°55'0 0.0
2016-Jul-24 20:31N 55°42' E 012°55'0 0.0
2016-Jul-24 19:31N 55°42' E 012°55'0 0.0
2016-Jul-24 18:31N 55°42' E 012°55'0 0.0
2016-Jul-24 17:31N 55°42' E 012°55'0 0.0
2016-Jul-24 16:31N 55°42' E 012°55'0 0.0
2016-Jul-24 15:31N 55°42' E 012°55'0 0.0
2016-Jul-24 14:31N 55°42' E 012°55'0 0.0
2016-Jul-24 13:31N 55°42' E 012°55'0 0.0
2016-Jul-24 12:31N 55°42' E 012°55'0 0.0
2016-Jul-24 11:31N 55°42' E 012°55'0 0.0
2016-Jul-24 10:31N 55°42' E 012°55'0 0.0
2016-Jul-24 09:31N 55°42' E 012°55'0 0.0
2016-Jul-24 08:31N 55°42' E 012°55'0 0.0
2016-Jul-24 07:31N 55°42' E 012°55'0 0.0
2016-Jul-24 06:31N 55°42' E 012°55'0 0.0
2016-Jul-24 05:31N 55°42' E 012°55'0 0.0
2016-Jul-24 04:31N 55°42' E 012°55'0 0.0
2016-Jul-24 03:31N 55°42' E 012°55'0 0.0
2016-Jul-24 02:31N 55°42' E 012°55'0 0.0
2016-Jul-24 01:31N 55°42' E 012°55'0 0.0
2016-Jul-24 00:31N 55°42' E 012°55'0 0.0
2016-Jul-23 23:31N 55°42' E 012°55'0 0.0
2016-Jul-23 22:31N 55°42' E 012°55'0 0.0
2016-Jul-23 21:31N 55°42' E 012°55'0 0.0
2016-Jul-23 20:31N 55°42' E 012°55'0 0.0
2016-Jul-23 19:31N 55°42' E 012°55'0 0.0
2016-Jul-23 18:34N 55°42' E 012°55'0 0.0
2016-Jul-23 17:31N 55°42' E 012°55'0 0.0
2016-Jul-23 16:31N 55°42' E 012°55'0 0.0
2016-Jul-23 15:31N 55°42' E 012°55'0 0.0
2016-Jul-23 14:31N 55°42' E 012°55'0 0.0
2016-Jul-23 13:31N 55°42' E 012°55'0 0.0
2016-Jul-23 12:31N 55°42' E 012°55'0 0.0
2016-Jul-23 11:31N 55°42' E 012°55'0 0.0
2016-Jul-23 10:31N 55°42' E 012°55'0 0.0
2016-Jul-23 09:31N 55°42' E 012°55'0 0.0
2016-Jul-23 08:31N 55°42' E 012°55'0 0.0
2016-Jul-23 07:31N 55°42' E 012°55'0 0.0
2016-Jul-23 06:31N 55°42' E 012°55'0 0.0
2016-Jul-23 04:31N 55°42' E 012°55'0 0.0
2016-Jul-23 03:31N 55°42' E 012°55'0 0.0
2016-Jul-23 02:31N 55°42' E 012°55'0 0.0
2016-Jul-23 01:31N 55°42' E 012°55'0 0.0
2016-Jul-23 00:31N 55°42' E 012°55'0 0.0
2016-Jul-22 23:31N 55°42' E 012°55'0 0.0
2016-Jul-22 22:31N 55°42' E 012°55'0 0.0
2016-Jul-22 21:31N 55°42' E 012°55'0 0.0
2016-Jul-22 20:31N 55°42' E 012°55'0 0.0
2016-Jul-22 19:31N 55°42' E 012°55'0 0.0
2016-Jul-22 18:31N 55°42' E 012°55'0 0.0
2016-Jul-22 17:31N 55°42' E 012°55'0 0.0
2016-Jul-22 16:31N 55°42' E 012°55'0 0.0
2016-Jul-22 15:31N 55°42' E 012°55'0 0.0
2016-Jul-22 14:31N 55°42' E 012°55'0 0.0
2016-Jul-22 13:31N 55°42' E 012°55'0 0.0
2016-Jul-22 12:31N 55°42' E 012°55'0 0.0
2016-Jul-22 11:31N 55°42' E 012°55'0 0.0
2016-Jul-22 10:31N 55°42' E 012°55'0 0.0
2016-Jul-22 09:31N 55°42' E 012°55'0 0.0
2016-Jul-22 08:31N 55°42' E 012°55'0 0.0
2016-Jul-22 07:31N 55°42' E 012°55'0 0.0
2016-Jul-22 04:31N 55°42' E 012°55'0 0.0
2016-Jul-22 03:31N 55°42' E 012°55'0 0.0
2016-Jul-22 02:31N 55°42' E 012°55'0 0.0
2016-Jul-22 01:31N 55°42' E 012°55'0 0.0
2016-Jul-22 00:31N 55°42' E 012°55'0 0.0
2016-Jul-21 23:31N 55°42' E 012°55'0 0.0
2016-Jul-21 22:31N 55°42' E 012°55'0 0.0
2016-Jul-21 21:31N 55°42' E 012°55'0 0.0
2016-Jul-21 20:31N 55°42' E 012°55'0 0.0
2016-Jul-21 19:31N 55°42' E 012°55'0 0.0
2016-Jul-21 18:31N 55°42' E 012°55'0 0.0
2016-Jul-21 17:31N 55°42' E 012°55'0 0.0
2016-Jul-21 16:31N 55°42' E 012°55'0 0.0
2016-Jul-21 15:31N 55°42' E 012°55'0 0.0
2016-Jul-21 14:31N 55°42' E 012°55'0 0.0
2016-Jul-21 13:31N 55°42' E 012°55'0 0.0
2016-Jul-21 12:31N 55°42' E 012°55'0 0.0
2016-Jul-21 11:31N 55°42' E 012°55'0 0.0
2016-Jul-21 10:31N 55°42' E 012°55'0 0.0
2016-Jul-21 09:31N 55°42' E 012°55'0 0.0
2016-Jul-21 08:31N 55°42' E 012°55'0 0.0
2016-Jul-21 07:31N 55°42' E 012°55'0 0.0
2016-Jul-21 06:31N 55°42' E 012°55'0 0.0
2016-Jul-21 05:31N 55°42' E 012°55'0 0.0
2016-Jul-21 04:31N 55°42' E 012°55'0 0.0
2016-Jul-21 03:31N 55°42' E 012°55'0 0.0
2016-Jul-21 02:31N 55°42' E 012°55'0 0.0
2016-Jul-21 01:31N 55°42' E 012°55'0 0.0
2016-Jul-21 00:31N 55°42' E 012°55'0 0.0
2016-Jul-20 23:31N 55°42' E 012°55'0 0.0
2016-Jul-20 22:31N 55°42' E 012°55'0 0.0
2016-Jul-20 21:31N 55°42' E 012°55'0 0.0
2016-Jul-20 20:31N 55°42' E 012°55'0 0.0
2016-Jul-20 19:31N 55°42' E 012°55'0 0.0
2016-Jul-20 18:31N 55°42' E 012°55'0 0.0
2016-Jul-20 17:31N 55°42' E 012°55'0 0.0
2016-Jul-20 16:31N 55°42' E 012°55'0 0.0
2016-Jul-20 15:31N 55°42' E 012°55'0 0.0
2016-Jul-20 14:31N 55°42' E 012°55'0 0.0
2016-Jul-20 13:31N 55°42' E 012°55'0 0.0
2016-Jul-20 12:31N 55°42' E 012°55'0 0.0
2016-Jul-20 11:31N 55°42' E 012°55'0 0.0
2016-Jul-20 10:31N 55°42' E 012°55'0 0.0
2016-Jul-20 09:34N 55°42' E 012°55'0 0.0
2016-Jul-20 08:31N 55°42' E 012°55'0 0.0
2016-Jul-20 07:31N 55°42' E 012°55'0 0.0
2016-Jul-20 06:34N 55°42' E 012°55'0 0.0
2016-Jul-20 05:31N 55°42' E 012°55'0 0.0
2016-Jul-20 04:31N 55°42' E 012°55'0 0.0
2016-Jul-20 03:31N 55°42' E 012°55'0 0.0
2016-Jul-20 02:31N 55°42' E 012°55'0 0.0
2016-Jul-20 01:31N 55°42' E 012°55'0 0.1
2016-Jul-20 00:31N 55°42' E 012°55'0 0.0
2016-Jul-19 23:31N 55°42' E 012°55'0 0.0
2016-Jul-19 22:31N 55°42' E 012°55'2 1.7
2016-Jul-19 21:33N 55°41' E 012°57'4 3.6
2016-Jul-19 20:32N 55°38' E 013°01'0 0.0
2016-Jul-19 19:32N 55°38' E 013°01'0 0.0
2016-Jul-19 18:32N 55°38' E 013°01'0 0.0
2016-Jul-19 17:32N 55°38' E 013°01'0 0.0
2016-Jul-19 16:32N 55°38' E 013°01'0 0.0
2016-Jul-19 15:32N 55°38' E 013°01'0 0.0
2016-Jul-19 14:32N 55°38' E 013°01'2 2.2
2016-Jul-19 13:33N 55°40' E 012°58'1211.8
2016-Jul-19 12:33N 55°49' E 012°46'1212.1
2016-Jul-19 11:33N 56°01' E 012°40'1211.5
2016-Jul-19 10:33N 56°09' E 012°25'1110.7
2016-Jul-19 09:33N 56°15' E 012°10'2211.0
2016-Jul-19 07:33N 56°36' E 011°56'3511.6
2016-Jul-19 04:33N 57°09' E 011°36'1211.7
2016-Jul-19 03:33N 57°20' E 011°29'1111.1
2016-Jul-19 02:32N 57°30' E 011°19'1111.7
2016-Jul-19 01:33N 57°38' E 011°03'1212.2
2016-Jul-19 00:33N 57°46' E 010°47'5212.3
2016-Jul-18 20:19N 57°39' E 009°10'  

Dump ship's entire track history